sensor_id;sensor_type;location;lat;lon;timestamp;temperature;humidity
16700;DHT22;8466;52.286;21.124;2024-01-10T00:00:14;-7.50;99.90
16700;DHT22;8466;52.286;21.124;2024-01-10T00:02:42;-7.60;99.90
16700;DHT22;8466;52.286;21.124;2024-01-10T00:05:13;-7.60;99.90
16700;DHT22;8466;52.286;21.124;2024-01-10T00:07:45;-7.70;99.90
16700;DHT22;8466;52.286;21.124;2024-01-10T00:10:14;-7.60;99.90
16700;DHT22;8466;52.286;21.124;2024-01-10T00:12:43;-7.60;99.90
16700;DHT22;8466;52.286;21.124;2024-01-10T00:15:12;-7.70;99.90
16700;DHT22;8466;52.286;21.124;2024-01-10T00:17:41;-7.60;99.90
16700;DHT22;8466;52.286;21.124;2024-01-10T00:20:11;-7.60;99.90
16700;DHT22;8466;52.286;21.124;2024-01-10T00:22:40;-7.60;99.90
16700;DHT22;8466;52.286;21.124;2024-01-10T00:25:09;-7.70;99.90
16700;DHT22;8466;52.286;21.124;2024-01-10T00:27:38;-7.70;99.90
16700;DHT22;8466;52.286;21.124;2024-01-10T00:30:07;-7.70;99.90
16700;DHT22;8466;52.286;21.124;2024-01-10T00:32:36;-7.70;99.90
16700;DHT22;8466;52.286;21.124;2024-01-10T00:35:05;-7.70;99.90
16700;DHT22;8466;52.286;21.124;2024-01-10T00:37:35;-7.70;99.90
16700;DHT22;8466;52.286;21.124;2024-01-10T00:40:05;-7.80;99.90
16700;DHT22;8466;52.286;21.124;2024-01-10T00:42:35;-7.80;99.90
16700;DHT22;8466;52.286;21.124;2024-01-10T00:45:04;-7.80;99.90
16700;DHT22;8466;52.286;21.124;2024-01-10T00:47:33;-7.80;99.90
16700;DHT22;8466;52.286;21.124;2024-01-10T00:50:02;-7.80;99.90
16700;DHT22;8466;52.286;21.124;2024-01-10T00:52:30;-7.80;99.90
16700;DHT22;8466;52.286;21.124;2024-01-10T00:55:00;-7.80;99.90
16700;DHT22;8466;52.286;21.124;2024-01-10T00:57:29;-7.80;99.90
16700;DHT22;8466;52.286;21.124;2024-01-10T00:59:58;-7.80;99.90
16700;DHT22;8466;52.286;21.124;2024-01-10T01:02:27;-7.80;99.90
16700;DHT22;8466;52.286;21.124;2024-01-10T01:04:55;-7.80;99.90
16700;DHT22;8466;52.286;21.124;2024-01-10T01:07:25;-7.90;99.90
16700;DHT22;8466;52.286;21.124;2024-01-10T01:09:54;-7.90;99.90
16700;DHT22;8466;52.286;21.124;2024-01-10T01:12:24;-7.90;99.90
16700;DHT22;8466;52.286;21.124;2024-01-10T01:14:52;-7.90;99.90
16700;DHT22;8466;52.286;21.124;2024-01-10T01:17:21;-8.00;99.90
16700;DHT22;8466;52.286;21.124;2024-01-10T01:19:50;-8.00;99.90
16700;DHT22;8466;52.286;21.124;2024-01-10T01:22:18;-7.90;99.90
16700;DHT22;8466;52.286;21.124;2024-01-10T01:24:47;-7.90;99.90
16700;DHT22;8466;52.286;21.124;2024-01-10T01:27:16;-7.90;99.90
16700;DHT22;8466;52.286;21.124;2024-01-10T01:29:46;-7.90;99.90
16700;DHT22;8466;52.286;21.124;2024-01-10T01:32:14;-7.90;99.90
16700;DHT22;8466;52.286;21.124;2024-01-10T01:34:43;-7.90;99.90
16700;DHT22;8466;52.286;21.124;2024-01-10T01:37:12;-7.90;99.90
16700;DHT22;8466;52.286;21.124;2024-01-10T01:39:40;-7.90;99.90
16700;DHT22;8466;52.286;21.124;2024-01-10T01:42:09;-7.80;99.90
16700;DHT22;8466;52.286;21.124;2024-01-10T01:44:38;-7.80;99.90
16700;DHT22;8466;52.286;21.124;2024-01-10T01:47:08;-7.80;99.90
16700;DHT22;8466;52.286;21.124;2024-01-10T01:49:37;-7.80;99.90
16700;DHT22;8466;52.286;21.124;2024-01-10T01:52:06;-7.90;99.90
16700;DHT22;8466;52.286;21.124;2024-01-10T01:54:35;-7.90;99.90
16700;DHT22;8466;52.286;21.124;2024-01-10T01:57:04;-7.90;99.90
16700;DHT22;8466;52.286;21.124;2024-01-10T01:59:33;-7.90;99.90
16700;DHT22;8466;52.286;21.124;2024-01-10T02:02:03;-7.90;99.90
16700;DHT22;8466;52.286;21.124;2024-01-10T02:04:34;-7.90;99.90
16700;DHT22;8466;52.286;21.124;2024-01-10T02:07:03;-8.00;99.90
16700;DHT22;8466;52.286;21.124;2024-01-10T02:09:32;-7.90;99.90
16700;DHT22;8466;52.286;21.124;2024-01-10T02:12:00;-8.00;99.90
16700;DHT22;8466;52.286;21.124;2024-01-10T02:14:30;-8.00;99.90
16700;DHT22;8466;52.286;21.124;2024-01-10T02:16:59;-8.00;99.90
16700;DHT22;8466;52.286;21.124;2024-01-10T02:19:28;-8.00;99.90
16700;DHT22;8466;52.286;21.124;2024-01-10T02:21:59;-8.00;99.90
16700;DHT22;8466;52.286;21.124;2024-01-10T02:24:30;-7.90;99.90
16700;DHT22;8466;52.286;21.124;2024-01-10T02:27:00;-7.90;99.90
16700;DHT22;8466;52.286;21.124;2024-01-10T02:29:30;-8.00;99.90
16700;DHT22;8466;52.286;21.124;2024-01-10T02:31:58;-7.90;99.90
16700;DHT22;8466;52.286;21.124;2024-01-10T02:34:29;-7.90;99.90
16700;DHT22;8466;52.286;21.124;2024-01-10T02:36:58;-7.90;99.90
16700;DHT22;8466;52.286;21.124;2024-01-10T02:39:26;-7.90;99.90
16700;DHT22;8466;52.286;21.124;2024-01-10T02:41:55;-7.90;99.90
16700;DHT22;8466;52.286;21.124;2024-01-10T02:44:25;-7.90;99.90
16700;DHT22;8466;52.286;21.124;2024-01-10T02:46:55;-7.90;99.90
16700;DHT22;8466;52.286;21.124;2024-01-10T02:49:24;-8.00;99.90
16700;DHT22;8466;52.286;21.124;2024-01-10T02:51:53;-7.90;99.90
16700;DHT22;8466;52.286;21.124;2024-01-10T02:54:21;-7.90;99.90
16700;DHT22;8466;52.286;21.124;2024-01-10T02:56:50;-7.90;99.90
16700;DHT22;8466;52.286;21.124;2024-01-10T02:59:19;-8.00;99.90
16700;DHT22;8466;52.286;21.124;2024-01-10T03:01:49;-8.00;99.90
16700;DHT22;8466;52.286;21.124;2024-01-10T03:04:18;-7.90;99.90
16700;DHT22;8466;52.286;21.124;2024-01-10T03:06:47;-7.90;99.90
16700;DHT22;8466;52.286;21.124;2024-01-10T03:09:16;-7.90;99.90
16700;DHT22;8466;52.286;21.124;2024-01-10T03:11:44;-7.90;99.90
16700;DHT22;8466;52.286;21.124;2024-01-10T03:14:13;-8.00;99.90
16700;DHT22;8466;52.286;21.124;2024-01-10T03:16:42;-7.90;99.90
16700;DHT22;8466;52.286;21.124;2024-01-10T03:19:12;-8.00;99.90
16700;DHT22;8466;52.286;21.124;2024-01-10T03:21:41;-8.00;99.90
16700;DHT22;8466;52.286;21.124;2024-01-10T03:24:10;-8.00;99.90
16700;DHT22;8466;52.286;21.124;2024-01-10T03:26:38;-8.00;99.90
16700;DHT22;8466;52.286;21.124;2024-01-10T03:29:07;-8.00;99.90
16700;DHT22;8466;52.286;21.124;2024-01-10T03:31:36;-7.90;99.90
16700;DHT22;8466;52.286;21.124;2024-01-10T03:34:04;-8.00;99.90
16700;DHT22;8466;52.286;21.124;2024-01-10T03:36:34;-8.00;99.90
16700;DHT22;8466;52.286;21.124;2024-01-10T03:39:03;-8.00;99.90
16700;DHT22;8466;52.286;21.124;2024-01-10T03:41:32;-8.00;99.90
16700;DHT22;8466;52.286;21.124;2024-01-10T03:44:00;-8.00;99.90
16700;DHT22;8466;52.286;21.124;2024-01-10T03:46:30;-8.00;99.90
16700;DHT22;8466;52.286;21.124;2024-01-10T03:48:59;-8.00;99.90
16700;DHT22;8466;52.286;21.124;2024-01-10T03:51:28;-8.00;99.90
16700;DHT22;8466;52.286;21.124;2024-01-10T03:53:58;-8.00;99.90
16700;DHT22;8466;52.286;21.124;2024-01-10T03:56:27;-8.00;99.90
16700;DHT22;8466;52.286;21.124;2024-01-10T03:59:00;-8.10;99.90
16700;DHT22;8466;52.286;21.124;2024-01-10T04:01:29;-8.20;99.90
16700;DHT22;8466;52.286;21.124;2024-01-10T04:03:58;-8.10;99.90
16700;DHT22;8466;52.286;21.124;2024-01-10T04:06:27;-8.20;99.90
16700;DHT22;8466;52.286;21.124;2024-01-10T04:08:58;-8.20;99.90
16700;DHT22;8466;52.286;21.124;2024-01-10T04:11:26;-8.20;99.90
16700;DHT22;8466;52.286;21.124;2024-01-10T04:13:55;-8.20;99.90
16700;DHT22;8466;52.286;21.124;2024-01-10T04:16:24;-8.20;99.90
16700;DHT22;8466;52.286;21.124;2024-01-10T04:18:54;-8.20;99.90
16700;DHT22;8466;52.286;21.124;2024-01-10T04:21:23;-8.20;99.90
16700;DHT22;8466;52.286;21.124;2024-01-10T04:23:52;-8.20;99.90
16700;DHT22;8466;52.286;21.124;2024-01-10T04:26:22;-8.20;99.90
16700;DHT22;8466;52.286;21.124;2024-01-10T04:28:51;-8.20;99.90
16700;DHT22;8466;52.286;21.124;2024-01-10T04:31:19;-8.10;99.90
16700;DHT22;8466;52.286;21.124;2024-01-10T04:33:48;-8.20;99.90
16700;DHT22;8466;52.286;21.124;2024-01-10T04:36:17;-8.20;99.90
16700;DHT22;8466;52.286;21.124;2024-01-10T04:38:45;-8.20;99.90
16700;DHT22;8466;52.286;21.124;2024-01-10T04:41:14;-8.20;99.90
16700;DHT22;8466;52.286;21.124;2024-01-10T04:43:44;-8.20;99.90
16700;DHT22;8466;52.286;21.124;2024-01-10T04:46:13;-8.20;99.90
16700;DHT22;8466;52.286;21.124;2024-01-10T04:48:43;-8.10;99.90
16700;DHT22;8466;52.286;21.124;2024-01-10T04:51:11;-8.20;99.90
16700;DHT22;8466;52.286;21.124;2024-01-10T04:53:41;-8.20;99.90
16700;DHT22;8466;52.286;21.124;2024-01-10T04:56:10;-8.20;99.90
16700;DHT22;8466;52.286;21.124;2024-01-10T04:58:39;-8.20;99.90
16700;DHT22;8466;52.286;21.124;2024-01-10T05:01:09;-8.20;99.90
16700;DHT22;8466;52.286;21.124;2024-01-10T05:03:38;-8.20;99.90
16700;DHT22;8466;52.286;21.124;2024-01-10T05:06:06;-8.20;99.90
16700;DHT22;8466;52.286;21.124;2024-01-10T05:08:35;-8.20;99.90
16700;DHT22;8466;52.286;21.124;2024-01-10T05:11:04;-8.20;99.90
16700;DHT22;8466;52.286;21.124;2024-01-10T05:13:33;-8.20;99.90
16700;DHT22;8466;52.286;21.124;2024-01-10T05:16:02;-8.20;99.90
16700;DHT22;8466;52.286;21.124;2024-01-10T05:18:32;-8.20;99.90
16700;DHT22;8466;52.286;21.124;2024-01-10T05:21:01;-8.10;99.90
16700;DHT22;8466;52.286;21.124;2024-01-10T05:23:31;-8.10;99.90
16700;DHT22;8466;52.286;21.124;2024-01-10T05:25:59;-8.10;99.90
16700;DHT22;8466;52.286;21.124;2024-01-10T05:28:28;-8.00;99.90
16700;DHT22;8466;52.286;21.124;2024-01-10T05:30:57;-8.00;99.90
16700;DHT22;8466;52.286;21.124;2024-01-10T05:33:26;-8.00;99.90
16700;DHT22;8466;52.286;21.124;2024-01-10T05:35:56;-7.90;99.90
16700;DHT22;8466;52.286;21.124;2024-01-10T05:38:25;-7.90;99.90
16700;DHT22;8466;52.286;21.124;2024-01-10T05:40:54;-7.90;99.90
16700;DHT22;8466;52.286;21.124;2024-01-10T05:43:23;-7.90;99.90
16700;DHT22;8466;52.286;21.124;2024-01-10T05:45:53;-7.90;99.90
16700;DHT22;8466;52.286;21.124;2024-01-10T05:48:22;-7.80;99.90
16700;DHT22;8466;52.286;21.124;2024-01-10T05:50:51;-7.70;99.90
16700;DHT22;8466;52.286;21.124;2024-01-10T05:53:22;-7.70;99.90
16700;DHT22;8466;52.286;21.124;2024-01-10T05:55:51;-7.70;99.90
16700;DHT22;8466;52.286;21.124;2024-01-10T05:58:20;-7.70;99.90
16700;DHT22;8466;52.286;21.124;2024-01-10T06:00:49;-7.70;99.90
16700;DHT22;8466;52.286;21.124;2024-01-10T06:03:17;-7.80;99.90
16700;DHT22;8466;52.286;21.124;2024-01-10T06:05:46;-7.90;99.90
16700;DHT22;8466;52.286;21.124;2024-01-10T06:08:15;-7.90;99.90
16700;DHT22;8466;52.286;21.124;2024-01-10T06:10:45;-7.90;99.90
16700;DHT22;8466;52.286;21.124;2024-01-10T06:13:14;-7.90;99.90
16700;DHT22;8466;52.286;21.124;2024-01-10T06:15:44;-7.90;99.90
16700;DHT22;8466;52.286;21.124;2024-01-10T06:18:13;-7.90;99.90
16700;DHT22;8466;52.286;21.124;2024-01-10T06:20:42;-8.00;99.90
16700;DHT22;8466;52.286;21.124;2024-01-10T06:23:11;-8.00;99.90
16700;DHT22;8466;52.286;21.124;2024-01-10T06:25:39;-7.90;99.90
16700;DHT22;8466;52.286;21.124;2024-01-10T06:28:08;-8.00;99.90
16700;DHT22;8466;52.286;21.124;2024-01-10T06:30:37;-7.90;99.90
16700;DHT22;8466;52.286;21.124;2024-01-10T06:33:06;-7.90;99.90
16700;DHT22;8466;52.286;21.124;2024-01-10T06:35:36;-7.80;99.90
16700;DHT22;8466;52.286;21.124;2024-01-10T06:38:12;-7.80;99.90
16700;DHT22;8466;52.286;21.124;2024-01-10T06:40:41;-7.80;99.90
16700;DHT22;8466;52.286;21.124;2024-01-10T06:43:13;-7.70;99.90
16700;DHT22;8466;52.286;21.124;2024-01-10T06:45:42;-7.70;99.90
16700;DHT22;8466;52.286;21.124;2024-01-10T06:48:10;-7.60;99.90
16700;DHT22;8466;52.286;21.124;2024-01-10T06:50:39;-7.60;99.90
16700;DHT22;8466;52.286;21.124;2024-01-10T06:53:09;-7.40;99.90
16700;DHT22;8466;52.286;21.124;2024-01-10T06:55:44;-7.40;99.90
16700;DHT22;8466;52.286;21.124;2024-01-10T06:58:17;-7.30;99.90
16700;DHT22;8466;52.286;21.124;2024-01-10T07:00:46;-7.20;99.90
16700;DHT22;8466;52.286;21.124;2024-01-10T07:03:15;-7.20;99.90
16700;DHT22;8466;52.286;21.124;2024-01-10T07:05:45;-7.20;99.90
16700;DHT22;8466;52.286;21.124;2024-01-10T07:08:14;-7.10;99.90
16700;DHT22;8466;52.286;21.124;2024-01-10T07:10:44;-7.20;99.90
16700;DHT22;8466;52.286;21.124;2024-01-10T07:13:14;-7.10;99.90
16700;DHT22;8466;52.286;21.124;2024-01-10T07:15:42;-7.00;99.90
16700;DHT22;8466;52.286;21.124;2024-01-10T07:18:11;-7.10;99.90
16700;DHT22;8466;52.286;21.124;2024-01-10T07:20:40;-7.00;99.90
16700;DHT22;8466;52.286;21.124;2024-01-10T07:23:09;-7.10;99.90
16700;DHT22;8466;52.286;21.124;2024-01-10T07:25:37;-7.10;99.90
16700;DHT22;8466;52.286;21.124;2024-01-10T07:28:06;-7.00;99.90
16700;DHT22;8466;52.286;21.124;2024-01-10T07:30:36;-7.00;99.90
16700;DHT22;8466;52.286;21.124;2024-01-10T07:33:05;-7.00;99.90
16700;DHT22;8466;52.286;21.124;2024-01-10T07:35:35;-6.90;99.90
16700;DHT22;8466;52.286;21.124;2024-01-10T07:38:05;-6.90;99.90
16700;DHT22;8466;52.286;21.124;2024-01-10T07:40:35;-6.90;99.90
16700;DHT22;8466;52.286;21.124;2024-01-10T07:43:04;-6.80;99.90
16700;DHT22;8466;52.286;21.124;2024-01-10T07:45:33;-6.80;99.90
16700;DHT22;8466;52.286;21.124;2024-01-10T07:48:03;-6.80;99.90
16700;DHT22;8466;52.286;21.124;2024-01-10T07:50:32;-6.70;99.90
16700;DHT22;8466;52.286;21.124;2024-01-10T07:53:01;-6.80;99.90
16700;DHT22;8466;52.286;21.124;2024-01-10T07:55:30;-6.70;99.90
16700;DHT22;8466;52.286;21.124;2024-01-10T07:57:59;-6.70;99.90
16700;DHT22;8466;52.286;21.124;2024-01-10T08:00:28;-6.60;99.90
16700;DHT22;8466;52.286;21.124;2024-01-10T08:02:57;-6.60;99.90
16700;DHT22;8466;52.286;21.124;2024-01-10T08:05:28;-6.60;99.90
16700;DHT22;8466;52.286;21.124;2024-01-10T08:07:57;-6.50;99.90
16700;DHT22;8466;52.286;21.124;2024-01-10T08:10:26;-6.50;99.90
16700;DHT22;8466;52.286;21.124;2024-01-10T08:12:55;-6.40;99.90
16700;DHT22;8466;52.286;21.124;2024-01-10T08:15:25;-6.40;99.90
16700;DHT22;8466;52.286;21.124;2024-01-10T08:17:56;-6.40;99.90
16700;DHT22;8466;52.286;21.124;2024-01-10T08:20:25;-6.40;99.90
16700;DHT22;8466;52.286;21.124;2024-01-10T08:22:56;-6.30;99.90
16700;DHT22;8466;52.286;21.124;2024-01-10T08:25:25;-6.30;99.90
16700;DHT22;8466;52.286;21.124;2024-01-10T08:27:54;-6.30;99.90
16700;DHT22;8466;52.286;21.124;2024-01-10T08:30:24;-6.30;99.90
16700;DHT22;8466;52.286;21.124;2024-01-10T08:32:53;-6.20;99.90
16700;DHT22;8466;52.286;21.124;2024-01-10T08:35:22;-6.30;99.90
16700;DHT22;8466;52.286;21.124;2024-01-10T08:37:58;-6.20;99.90
16700;DHT22;8466;52.286;21.124;2024-01-10T08:40:27;-6.20;99.90
16700;DHT22;8466;52.286;21.124;2024-01-10T08:42:55;-6.20;99.90
16700;DHT22;8466;52.286;21.124;2024-01-10T08:45:24;-6.10;99.90
16700;DHT22;8466;52.286;21.124;2024-01-10T08:47:53;-6.00;99.90
16700;DHT22;8466;52.286;21.124;2024-01-10T08:50:22;-5.90;99.90
16700;DHT22;8466;52.286;21.124;2024-01-10T08:52:51;-5.80;99.90
16700;DHT22;8466;52.286;21.124;2024-01-10T08:55:24;-5.70;99.90
16700;DHT22;8466;52.286;21.124;2024-01-10T08:57:54;-5.60;99.90
16700;DHT22;8466;52.286;21.124;2024-01-10T09:00:23;-5.50;99.90
16700;DHT22;8466;52.286;21.124;2024-01-10T09:02:54;-5.50;99.90
16700;DHT22;8466;52.286;21.124;2024-01-10T09:05:23;-5.50;99.90
16700;DHT22;8466;52.286;21.124;2024-01-10T09:07:52;-5.40;99.90
16700;DHT22;8466;52.286;21.124;2024-01-10T09:10:22;-5.40;99.90
16700;DHT22;8466;52.286;21.124;2024-01-10T09:12:54;-5.50;99.90
16700;DHT22;8466;52.286;21.124;2024-01-10T09:15:23;-5.50;99.90
16700;DHT22;8466;52.286;21.124;2024-01-10T09:17:52;-5.60;99.90
16700;DHT22;8466;52.286;21.124;2024-01-10T09:20:25;-5.50;99.90
16700;DHT22;8466;52.286;21.124;2024-01-10T09:23:08;-5.40;99.90
16700;DHT22;8466;52.286;21.124;2024-01-10T09:25:39;-5.30;99.90
16700;DHT22;8466;52.286;21.124;2024-01-10T09:28:08;-5.40;99.90
16700;DHT22;8466;52.286;21.124;2024-01-10T09:30:37;-5.30;99.90
16700;DHT22;8466;52.286;21.124;2024-01-10T09:33:08;-5.40;99.90
16700;DHT22;8466;52.286;21.124;2024-01-10T09:35:38;-5.40;99.90
16700;DHT22;8466;52.286;21.124;2024-01-10T09:38:07;-5.50;99.90
16700;DHT22;8466;52.286;21.124;2024-01-10T09:40:36;-5.50;99.90
16700;DHT22;8466;52.286;21.124;2024-01-10T09:43:06;-5.40;99.90
16700;DHT22;8466;52.286;21.124;2024-01-10T09:45:35;-5.40;99.90
16700;DHT22;8466;52.286;21.124;2024-01-10T09:48:06;-5.40;99.90
16700;DHT22;8466;52.286;21.124;2024-01-10T09:50:35;-5.50;99.90
16700;DHT22;8466;52.286;21.124;2024-01-10T09:53:06;-5.50;99.90
16700;DHT22;8466;52.286;21.124;2024-01-10T09:55:36;-5.40;99.90
16700;DHT22;8466;52.286;21.124;2024-01-10T09:58:08;-5.30;99.90
16700;DHT22;8466;52.286;21.124;2024-01-10T10:00:40;-5.20;99.90
16700;DHT22;8466;52.286;21.124;2024-01-10T10:03:10;-5.20;99.90
16700;DHT22;8466;52.286;21.124;2024-01-10T10:05:40;-5.20;99.90
16700;DHT22;8466;52.286;21.124;2024-01-10T10:08:24;-5.20;99.90
16700;DHT22;8466;52.286;21.124;2024-01-10T10:11:12;-5.00;99.90
16700;DHT22;8466;52.286;21.124;2024-01-10T10:13:43;-5.00;99.90
16700;DHT22;8466;52.286;21.124;2024-01-10T10:16:13;-5.00;99.90
16700;DHT22;8466;52.286;21.124;2024-01-10T10:18:50;-4.90;99.90
16700;DHT22;8466;52.286;21.124;2024-01-10T10:21:35;-4.80;99.90
16700;DHT22;8466;52.286;21.124;2024-01-10T10:24:07;-4.80;99.90
16700;DHT22;8466;52.286;21.124;2024-01-10T10:26:37;-4.90;99.90
16700;DHT22;8466;52.286;21.124;2024-01-10T10:29:07;-4.80;99.90
16700;DHT22;8466;52.286;21.124;2024-01-10T10:31:36;-4.80;99.90
16700;DHT22;8466;52.286;21.124;2024-01-10T10:34:04;-4.80;99.90
16700;DHT22;8466;52.286;21.124;2024-01-10T10:36:33;-4.70;99.90
16700;DHT22;8466;52.286;21.124;2024-01-10T10:39:02;-4.80;99.90
16700;DHT22;8466;52.286;21.124;2024-01-10T10:41:31;-4.90;99.90
16700;DHT22;8466;52.286;21.124;2024-01-10T10:44:02;-4.80;99.90
16700;DHT22;8466;52.286;21.124;2024-01-10T10:46:34;-4.90;99.90
16700;DHT22;8466;52.286;21.124;2024-01-10T10:49:09;-5.00;99.90
16700;DHT22;8466;52.286;21.124;2024-01-10T10:51:40;-5.10;99.90
16700;DHT22;8466;52.286;21.124;2024-01-10T10:54:12;-5.30;99.90
16700;DHT22;8466;52.286;21.124;2024-01-10T10:56:43;-5.40;99.90
16700;DHT22;8466;52.286;21.124;2024-01-10T10:59:13;-5.30;99.90
16700;DHT22;8466;52.286;21.124;2024-01-10T11:01:46;-5.40;99.90
16700;DHT22;8466;52.286;21.124;2024-01-10T11:04:15;-5.40;99.90
16700;DHT22;8466;52.286;21.124;2024-01-10T11:06:45;-5.40;99.90
16700;DHT22;8466;52.286;21.124;2024-01-10T11:09:16;-5.30;99.90
16700;DHT22;8466;52.286;21.124;2024-01-10T11:12:01;-5.20;99.90
16700;DHT22;8466;52.286;21.124;2024-01-10T11:14:39;-5.30;99.90
16700;DHT22;8466;52.286;21.124;2024-01-10T11:17:39;-5.40;99.90
16700;DHT22;8466;52.286;21.124;2024-01-10T11:20:36;-5.20;99.90
16700;DHT22;8466;52.286;21.124;2024-01-10T11:23:29;-5.20;99.90
16700;DHT22;8466;52.286;21.124;2024-01-10T11:26:03;-5.20;99.90
16700;DHT22;8466;52.286;21.124;2024-01-10T11:28:32;-5.20;99.90
16700;DHT22;8466;52.286;21.124;2024-01-10T11:31:02;-5.30;99.90
16700;DHT22;8466;52.286;21.124;2024-01-10T11:33:34;-5.30;99.90
16700;DHT22;8466;52.286;21.124;2024-01-10T11:36:08;-5.30;99.90
16700;DHT22;8466;52.286;21.124;2024-01-10T11:38:42;-5.30;99.90
16700;DHT22;8466;52.286;21.124;2024-01-10T11:41:12;-5.30;99.90
16700;DHT22;8466;52.286;21.124;2024-01-10T11:43:42;-5.20;99.90
16700;DHT22;8466;52.286;21.124;2024-01-10T11:46:12;-5.00;99.90
16700;DHT22;8466;52.286;21.124;2024-01-10T11:48:44;-4.90;99.90
16700;DHT22;8466;52.286;21.124;2024-01-10T11:51:14;-5.00;99.90
16700;DHT22;8466;52.286;21.124;2024-01-10T11:53:44;-5.00;99.90
16700;DHT22;8466;52.286;21.124;2024-01-10T11:56:15;-4.90;99.90
16700;DHT22;8466;52.286;21.124;2024-01-10T11:59:00;-4.90;99.90
16700;DHT22;8466;52.286;21.124;2024-01-10T12:01:29;-4.90;99.90
16700;DHT22;8466;52.286;21.124;2024-01-10T12:04:00;-4.80;99.90
16700;DHT22;8466;52.286;21.124;2024-01-10T12:06:47;-4.80;99.90
16700;DHT22;8466;52.286;21.124;2024-01-10T12:09:24;-4.70;99.90
16700;DHT22;8466;52.286;21.124;2024-01-10T12:11:53;-4.70;99.90
16700;DHT22;8466;52.286;21.124;2024-01-10T12:14:27;-4.60;99.90
16700;DHT22;8466;52.286;21.124;2024-01-10T12:16:58;-4.50;99.90
16700;DHT22;8466;52.286;21.124;2024-01-10T12:19:31;-4.50;99.90
16700;DHT22;8466;52.286;21.124;2024-01-10T12:22:00;-4.40;99.90
16700;DHT22;8466;52.286;21.124;2024-01-10T12:24:33;-4.50;99.90
16700;DHT22;8466;52.286;21.124;2024-01-10T12:27:01;-4.50;99.90
16700;DHT22;8466;52.286;21.124;2024-01-10T12:29:30;-4.40;99.90
16700;DHT22;8466;52.286;21.124;2024-01-10T12:31:59;-4.30;99.90
16700;DHT22;8466;52.286;21.124;2024-01-10T12:34:28;-4.30;99.90
16700;DHT22;8466;52.286;21.124;2024-01-10T12:36:59;-4.40;99.90
16700;DHT22;8466;52.286;21.124;2024-01-10T12:39:28;-4.40;99.90
16700;DHT22;8466;52.286;21.124;2024-01-10T12:41:58;-4.50;99.90
16700;DHT22;8466;52.286;21.124;2024-01-10T12:44:28;-4.50;99.90
16700;DHT22;8466;52.286;21.124;2024-01-10T12:47:18;-4.50;99.90
16700;DHT22;8466;52.286;21.124;2024-01-10T12:49:49;-4.50;99.90
16700;DHT22;8466;52.286;21.124;2024-01-10T12:52:20;-4.50;99.90
16700;DHT22;8466;52.286;21.124;2024-01-10T12:54:51;-4.50;99.90
16700;DHT22;8466;52.286;21.124;2024-01-10T12:57:20;-4.50;99.90
16700;DHT22;8466;52.286;21.124;2024-01-10T12:59:51;-4.40;99.90
16700;DHT22;8466;52.286;21.124;2024-01-10T13:02:20;-4.50;99.90
16700;DHT22;8466;52.286;21.124;2024-01-10T13:04:49;-4.50;99.90
16700;DHT22;8466;52.286;21.124;2024-01-10T13:07:21;-4.60;99.90
16700;DHT22;8466;52.286;21.124;2024-01-10T13:09:50;-4.60;99.90
16700;DHT22;8466;52.286;21.124;2024-01-10T13:12:20;-4.60;99.90
16700;DHT22;8466;52.286;21.124;2024-01-10T13:14:49;-4.60;99.90
16700;DHT22;8466;52.286;21.124;2024-01-10T13:17:19;-4.70;99.90
16700;DHT22;8466;52.286;21.124;2024-01-10T13:19:50;-4.60;99.90
16700;DHT22;8466;52.286;21.124;2024-01-10T13:22:22;-4.50;99.90
16700;DHT22;8466;52.286;21.124;2024-01-10T13:24:51;-4.50;99.90
16700;DHT22;8466;52.286;21.124;2024-01-10T13:27:21;-4.60;99.90
16700;DHT22;8466;52.286;21.124;2024-01-10T13:29:51;-4.70;99.90
16700;DHT22;8466;52.286;21.124;2024-01-10T13:32:19;-4.80;99.90
16700;DHT22;8466;52.286;21.124;2024-01-10T13:35:10;-4.80;99.90
16700;DHT22;8466;52.286;21.124;2024-01-10T13:37:41;-4.70;99.90
16700;DHT22;8466;52.286;21.124;2024-01-10T13:40:11;-4.70;99.90
16700;DHT22;8466;52.286;21.124;2024-01-10T13:42:41;-4.70;99.90
16700;DHT22;8466;52.286;21.124;2024-01-10T13:45:15;-4.70;99.90
16700;DHT22;8466;52.286;21.124;2024-01-10T13:47:44;-4.90;99.90
16700;DHT22;8466;52.286;21.124;2024-01-10T13:50:13;-5.00;99.90
16700;DHT22;8466;52.286;21.124;2024-01-10T13:52:43;-5.10;99.90
16700;DHT22;8466;52.286;21.124;2024-01-10T13:55:12;-5.20;99.90
16700;DHT22;8466;52.286;21.124;2024-01-10T13:57:41;-5.20;99.90
16700;DHT22;8466;52.286;21.124;2024-01-10T14:00:13;-5.20;99.90
16700;DHT22;8466;52.286;21.124;2024-01-10T14:02:43;-5.20;99.90
16700;DHT22;8466;52.286;21.124;2024-01-10T14:05:12;-5.20;99.90
16700;DHT22;8466;52.286;21.124;2024-01-10T14:07:42;-5.10;99.90
16700;DHT22;8466;52.286;21.124;2024-01-10T14:10:14;-5.10;99.90
16700;DHT22;8466;52.286;21.124;2024-01-10T14:12:42;-5.00;99.90
16700;DHT22;8466;52.286;21.124;2024-01-10T14:15:11;-5.00;99.90
16700;DHT22;8466;52.286;21.124;2024-01-10T14:17:41;-5.00;99.90
16700;DHT22;8466;52.286;21.124;2024-01-10T14:20:11;-4.90;99.90
16700;DHT22;8466;52.286;21.124;2024-01-10T14:22:40;-5.00;99.90
16700;DHT22;8466;52.286;21.124;2024-01-10T14:25:11;-5.00;99.90
16700;DHT22;8466;52.286;21.124;2024-01-10T14:27:41;-5.10;99.90
16700;DHT22;8466;52.286;21.124;2024-01-10T14:30:10;-5.10;99.90
16700;DHT22;8466;52.286;21.124;2024-01-10T14:32:41;-5.10;99.90
16700;DHT22;8466;52.286;21.124;2024-01-10T14:35:11;-5.10;99.90
16700;DHT22;8466;52.286;21.124;2024-01-10T14:37:41;-5.20;99.90
16700;DHT22;8466;52.286;21.124;2024-01-10T14:40:12;-5.30;99.90
16700;DHT22;8466;52.286;21.124;2024-01-10T14:42:41;-5.40;99.90
16700;DHT22;8466;52.286;21.124;2024-01-10T14:45:10;-5.50;99.90
16700;DHT22;8466;52.286;21.124;2024-01-10T14:47:42;-5.50;99.90
16700;DHT22;8466;52.286;21.124;2024-01-10T14:50:12;-5.60;99.90
16700;DHT22;8466;52.286;21.124;2024-01-10T14:52:42;-5.60;99.90
16700;DHT22;8466;52.286;21.124;2024-01-10T14:55:28;-5.60;99.90
16700;DHT22;8466;52.286;21.124;2024-01-10T14:57:57;-5.70;99.90
16700;DHT22;8466;52.286;21.124;2024-01-10T15:00:26;-5.60;99.90
16700;DHT22;8466;52.286;21.124;2024-01-10T15:02:54;-5.60;99.90
16700;DHT22;8466;52.286;21.124;2024-01-10T15:05:23;-5.70;99.90
16700;DHT22;8466;52.286;21.124;2024-01-10T15:07:54;-5.70;99.90
16700;DHT22;8466;52.286;21.124;2024-01-10T15:10:22;-5.70;99.90
16700;DHT22;8466;52.286;21.124;2024-01-10T15:12:53;-5.80;99.90
16700;DHT22;8466;52.286;21.124;2024-01-10T15:15:22;-5.80;99.90
16700;DHT22;8466;52.286;21.124;2024-01-10T15:17:52;-5.80;99.90
16700;DHT22;8466;52.286;21.124;2024-01-10T15:20:21;-5.90;99.90
16700;DHT22;8466;52.286;21.124;2024-01-10T15:22:49;-6.00;99.90
16700;DHT22;8466;52.286;21.124;2024-01-10T15:25:18;-6.00;99.90
16700;DHT22;8466;52.286;21.124;2024-01-10T15:27:47;-6.00;99.90
16700;DHT22;8466;52.286;21.124;2024-01-10T15:30:18;-6.00;99.90
16700;DHT22;8466;52.286;21.124;2024-01-10T15:32:49;-6.00;99.90
16700;DHT22;8466;52.286;21.124;2024-01-10T15:35:18;-6.10;99.90
16700;DHT22;8466;52.286;21.124;2024-01-10T15:37:47;-6.00;99.90
16700;DHT22;8466;52.286;21.124;2024-01-10T15:40:16;-6.00;99.90
16700;DHT22;8466;52.286;21.124;2024-01-10T15:42:45;-6.00;99.90
16700;DHT22;8466;52.286;21.124;2024-01-10T15:45:14;-6.00;99.90
16700;DHT22;8466;52.286;21.124;2024-01-10T15:47:44;-6.00;99.90